Aviation Digital Data Service (ADDS)

Output produced by TAFs form (1330 UTC 20 August 2017)
found at http://www.aviationweather.gov/adds/tafs/
 
KPIT 201325Z 13004KT 3/4SM R28R/3000VP6000FT BR VV001 17/17 A3014 RMK AO2 T01720172 $
KPIT 201256Z 2013/2118 00000KT 1/4SM FG VV001 
     FM201400 00000KT 2SM BR SCT002 
     FM201430 VRB03KT P6SM SKC
       
KAGC 201323Z 00000KT 1/2SM R28/1200VP6000FT FG VV002 17/16 A3014 RMK AO2 T01720161
KAGC 201132Z 2012/2112 00000KT 1/4SM FG VV002 
     FM201330 00000KT 2SM BR SCT002 
     FM201500 VRB03KT P6SM SKC
       
KBVI 201132Z 2012/2112 00000KT 1/4SM FG VV001 
     FM201330 00000KT 1SM BR SCT002 
     FM201500 VRB03KT P6SM SKC AMD NOT SKED
       
KFKL 201315Z AUTO 23005KT 10SM CLR 19/15 A3015 RMK AO1
KFKL 201226Z 2012/2112 VRB03KT P6SM SKC AMD LTD TO CLD VIS AND WIND
       
KYNG 201251Z 18005KT 10SM CLR 19/16 A3013 RMK AO2 SLP198 T01940161
KYNG 201138Z 2012/2112 00000KT P6SM SKC 
     TEMPO 2012/2013 5SM BR SCT002 
     FM201700 VRB03KT P6SM FEW050